Time;durP1;ratioP1;P1;durP2;ratioP2;P2;SDS_P1;SDS_P2;PMS_P1;PMS_P2;Temp;Humidity;BMP_temperature;BMP_pressure;BME280_temperature;BME280_humidity;BME280_pressure;Samples;Min_cycle;Max_cycle;Signal;HPM_P1;HPM_P2
2023/01/14 00:01:17;;;;;;;3.33;1.30;;;;;;;;;;4930912;28;20232;-88
2023/01/14 00:03:43;;;;;;;2.77;1.30;;;;;;;;;;4943950;28;20225;-87
2023/01/14 00:06:10;;;;;;;5.73;1.57;;;;;;;;;;4922519;28;20233;-88
2023/01/14 00:08:36;;;;;;;5.60;1.47;;;;;;;;;;4938155;28;20252;-87
2023/01/14 00:11:03;;;;;;;3.40;1.17;;;;;;;;;;4948942;28;20237;-87
2023/01/14 00:13:29;;;;;;;3.30;1.27;;;;;;;;;;4941071;28;20916;-87
2023/01/14 00:15:56;;;;;;;3.83;1.50;;;;;;;;;;4963338;28;20233;-88
2023/01/14 00:18:26;;;;;;;2.57;1.50;;;;;;;;;;4945754;28;20272;-86
2023/01/14 00:21:06;;;;;;;3.43;1.30;;;;;;;;;;4948255;28;20245;-87
2023/01/14 00:23:34;;;;;;;5.20;1.30;;;;;;;;;;4984817;28;20222;-86
2023/01/14 00:26:05;;;;;;;2.70;1.27;;;;;;;;;;4936726;28;20244;-88
2023/01/14 00:28:31;;;;;;;10.00;1.67;;;;;;;;;;4928557;28;20222;-90
2023/01/14 00:31:02;;;;;;;3.07;1.40;;;;;;;;;;4928045;28;20363;-89
2023/01/14 00:33:27;;;;;;;3.30;1.47;;;;;;;;;;4945891;28;20221;-90
2023/01/14 00:35:55;;;;;;;3.23;1.30;;;;;;;;;;4949529;28;20268;-90
2023/01/14 00:38:22;;;;;;;2.97;1.57;;;;;;;;;;4944678;28;20229;-90
2023/01/14 00:40:50;;;;;;;3.47;1.60;;;;;;;;;;4919059;28;20953;-89
2023/01/14 00:43:17;;;;;;;3.43;1.50;;;;;;;;;;4976485;28;20490;-89
2023/01/14 00:45:43;;;;;;;4.80;1.30;;;;;;;;;;4913490;28;20893;-87
2023/01/14 00:48:08;;;;;;;2.83;1.30;;;;;;;;;;4960801;28;20700;-88
2023/01/14 00:50:36;;;;;;;3.40;1.40;;;;;;;;;;4930498;28;20226;-88
2023/01/14 00:53:04;;;;;;;3.73;1.50;;;;;;;;;;4930571;28;20226;-87
2023/01/14 00:55:30;;;;;;;4.83;1.57;;;;;;;;;;4946660;28;20656;-89
2023/01/14 00:57:56;;;;;;;2.10;1.20;;;;;;;;;;4932234;28;20245;-87
2023/01/14 01:00:23;;;;;;;1.30;1.00;;;;;;;;;;4944574;28;20224;-89
2023/01/14 01:02:49;;;;;;;1.50;1.30;;;;;;;;;;4935346;28;20232;-85
2023/01/14 01:05:14;;;;;;;3.17;1.10;;;;;;;;;;4943297;28;20218;-85
2023/01/14 01:07:43;;;;;;;4.70;1.43;;;;;;;;;;4959153;28;20222;-89
2023/01/14 01:10:09;;;;;;;2.20;1.10;;;;;;;;;;4936953;28;20214;-88
2023/01/14 01:12:37;;;;;;;2.50;1.20;;;;;;;;;;4958979;28;20230;-86
2023/01/14 01:15:03;;;;;;;2.47;1.10;;;;;;;;;;4960095;28;20213;-88
2023/01/14 01:17:29;;;;;;;2.77;1.13;;;;;;;;;;4952802;28;20230;-89
2023/01/14 01:19:57;;;;;;;2.77;0.93;;;;;;;;;;4951750;28;20213;-88
2023/01/14 01:22:22;;;;;;;2.40;0.90;;;;;;;;;;4935658;28;21238;-88
2023/01/14 01:24:48;;;;;;;3.10;1.10;;;;;;;;;;4945797;28;20239;-88
2023/01/14 01:27:13;;;;;;;2.33;1.00;;;;;;;;;;4947091;28;20229;-87
2023/01/14 01:29:41;;;;;;;1.57;0.90;;;;;;;;;;4947373;28;20228;-89
2023/01/14 01:32:11;;;;;;;2.10;1.03;;;;;;;;;;4928676;28;20230;-88
2023/01/14 01:34:37;;;;;;;3.80;1.20;;;;;;;;;;4945532;28;20228;-88
2023/01/14 01:37:03;;;;;;;2.50;1.00;;;;;;;;;;4941969;28;20234;-88
2023/01/14 01:39:28;;;;;;;2.50;1.23;;;;;;;;;;4939612;28;20217;-87
2023/01/14 01:41:56;;;;;;;2.13;1.10;;;;;;;;;;4945432;28;20225;-90
2023/01/14 01:44:24;;;;;;;1.43;1.03;;;;;;;;;;4946942;28;20225;-88
2023/01/14 01:46:54;;;;;;;2.17;0.90;;;;;;;;;;4958245;28;20650;-89
2023/01/14 01:49:26;;;;;;;1.57;0.80;;;;;;;;;;4941818;28;20225;-88
2023/01/14 01:51:59;;;;;;;2.17;1.10;;;;;;;;;;4943522;28;20222;-88
2023/01/14 01:54:30;;;;;;;1.73;1.30;;;;;;;;;;4944926;28;20222;-89
2023/01/14 01:56:58;;;;;;;1.77;1.17;;;;;;;;;;4942523;28;20234;-88
2023/01/14 01:59:27;;;;;;;3.53;1.57;;;;;;;;;;4911802;28;20561;-88
2023/01/14 02:01:53;;;;;;;2.10;1.43;;;;;;;;;;4958756;28;20652;-89
2023/01/14 02:04:19;;;;;;;5.07;1.73;;;;;;;;;;4945569;28;20225;-87
2023/01/14 02:06:47;;;;;;;2.23;1.20;;;;;;;;;;4928410;28;20226;-87
2023/01/14 02:09:12;;;;;;;7.47;1.77;;;;;;;;;;4926405;28;20241;-87
2023/01/14 02:12:29;;;;;;;4.93;1.50;;;;;;;;;;4925352;28;20254;-87
2023/01/14 02:15:51;;;;;;;3.63;1.73;;;;;;;;;;4938218;28;20776;-88
2023/01/14 02:18:22;;;;;;;4.17;1.90;;;;;;;;;;4935084;28;20291;-88
2023/01/14 02:21:15;;;;;;;5.07;1.73;;;;;;;;;;4961470;28;20233;-88
2023/01/14 02:24:07;;;;;;;3.60;2.10;;;;;;;;;;4951996;28;20226;-87
2023/01/14 02:26:53;;;;;;;4.53;2.00;;;;;;;;;;4959722;28;20245;-88
2023/01/14 02:30:05;;;;;;;4.90;2.30;;;;;;;;;;4953512;28;20759;-87
2023/01/14 02:33:15;;;;;;;3.53;1.87;;;;;;;;;;4915454;28;20224;-88
2023/01/14 02:35:51;;;;;;;5.13;1.90;;;;;;;;;;4958294;28;20275;-90
2023/01/14 02:38:59;;;;;;;4.80;1.70;;;;;;;;;;4947335;28;20225;-90
2023/01/14 02:44:27;;;;;;;3.30;1.70;;;;;;;;;;4946859;28;20226;-88
2023/01/14 02:46:56;;;;;;;5.40;2.23;;;;;;;;;;4934010;28;20230;-85
2023/01/14 02:49:29;;;;;;;2.33;1.80;;;;;;;;;;4930554;28;20230;-90
2023/01/14 02:51:59;;;;;;;3.37;1.93;;;;;;;;;;4946390;28;20226;-88
2023/01/14 02:54:26;;;;;;;2.17;1.73;;;;;;;;;;4952741;28;20228;-89
2023/01/14 02:56:53;;;;;;;4.57;2.13;;;;;;;;;;4933490;28;20214;-87
2023/01/14 02:59:33;;;;;;;6.13;2.10;;;;;;;;;;4947367;28;20241;-88
2023/01/14 03:02:22;;;;;;;4.57;2.23;;;;;;;;;;4966768;28;20221;-88
2023/01/14 03:05:27;;;;;;;3.70;1.83;;;;;;;;;;4967113;28;20226;-89
2023/01/14 03:08:10;;;;;;;7.47;2.30;;;;;;;;;;4978687;28;20218;-87
2023/01/14 03:10:39;;;;;;;3.67;2.20;;;;;;;;;;4946014;28;20218;-89
2023/01/14 03:13:08;;;;;;;4.07;1.87;;;;;;;;;;4938663;28;20229;-89
2023/01/14 03:15:37;;;;;;;4.70;2.07;;;;;;;;;;4957474;28;20276;-90
2023/01/14 03:18:27;;;;;;;6.73;1.70;;;;;;;;;;4942982;28;20217;-89
2023/01/14 03:21:09;;;;;;;7.00;2.10;;;;;;;;;;4953951;28;20225;-88
2023/01/14 03:23:39;;;;;;;5.10;2.07;;;;;;;;;;4964733;28;20209;-89
2023/01/14 03:26:09;;;;;;;5.60;2.00;;;;;;;;;;4944929;28;20372;-88
2023/01/14 03:28:38;;;;;;;5.70;1.90;;;;;;;;;;4944800;28;20225;-89
2023/01/14 03:31:08;;;;;;;6.40;1.90;;;;;;;;;;4941009;28;20305;-88
2023/01/14 03:33:43;;;;;;;7.60;2.60;;;;;;;;;;4940847;28;20226;-87
2023/01/14 03:36:08;;;;;;;5.87;1.83;;;;;;;;;;4924352;28;20229;-89
2023/01/14 03:38:43;;;;;;;6.70;2.07;;;;;;;;;;4977127;28;20698;-87
2023/01/14 03:41:08;;;;;;;4.73;2.07;;;;;;;;;;4943449;28;20222;-88
2023/01/14 03:43:40;;;;;;;5.43;2.47;;;;;;;;;;4947520;28;20210;-87
2023/01/14 03:46:08;;;;;;;6.50;1.97;;;;;;;;;;4952446;28;20669;-87
2023/01/14 03:48:33;;;;;;;9.80;2.20;;;;;;;;;;4964955;28;20388;-87
2023/01/14 03:51:08;;;;;;;5.57;1.97;;;;;;;;;;4950639;28;20224;-90
2023/01/14 03:53:38;;;;;;;6.03;2.10;;;;;;;;;;4960371;28;20252;-87
2023/01/14 03:56:04;;;;;;;6.67;1.90;;;;;;;;;;4945105;28;20257;-88
2023/01/14 03:58:53;;;;;;;5.30;2.27;;;;;;;;;;4967636;28;20624;-89
2023/01/14 04:01:32;;;;;;;6.57;2.00;;;;;;;;;;4977440;28;20222;-89
2023/01/14 04:03:57;;;;;;;5.93;1.90;;;;;;;;;;4956088;28;20313;-89
2023/01/14 04:06:23;;;;;;;4.80;1.80;;;;;;;;;;4927057;28;20245;-87
2023/01/14 04:08:48;;;;;;;7.17;1.97;;;;;;;;;;4927625;28;20225;-87
2023/01/14 04:11:14;;;;;;;5.77;1.90;;;;;;;;;;4929548;28;20592;-87
2023/01/14 04:16:24;;;;;;;4.60;1.90;;;;;;;;;;4964726;28;20253;-88
2023/01/14 04:18:51;;;;;;;4.97;2.03;;;;;;;;;;4939751;28;20216;-87
2023/01/14 04:21:20;;;;;;;3.80;2.03;;;;;;;;;;4948175;28;20229;-87
2023/01/14 04:23:45;;;;;;;6.63;2.17;;;;;;;;;;4926306;28;20280;-84
2023/01/14 04:26:11;;;;;;;4.43;1.80;;;;;;;;;;4945113;28;20228;-88
2023/01/14 04:28:36;;;;;;;4.83;2.00;;;;;;;;;;4943274;28;20213;-87
2023/01/14 04:31:04;;;;;;;5.47;2.13;;;;;;;;;;4949127;28;20233;-85
2023/01/14 04:33:32;;;;;;;9.83;2.00;;;;;;;;;;4940752;28;20250;-90
2023/01/14 04:36:02;;;;;;;6.43;2.07;;;;;;;;;;4929648;28;20226;-86
2023/01/14 04:38:28;;;;;;;3.80;1.80;;;;;;;;;;4923343;28;20241;-86
2023/01/14 04:40:59;;;;;;;7.13;2.27;;;;;;;;;;4937596;28;20214;-88
2023/01/14 04:43:24;;;;;;;6.87;1.60;;;;;;;;;;4935976;28;20266;-86
2023/01/14 04:45:53;;;;;;;3.67;1.50;;;;;;;;;;4943372;28;20717;-88
2023/01/14 04:48:19;;;;;;;8.07;1.63;;;;;;;;;;4953820;28;20260;-87
2023/01/14 04:50:46;;;;;;;4.13;1.80;;;;;;;;;;4960182;28;20221;-87
2023/01/14 04:53:21;;;;;;;7.00;2.00;;;;;;;;;;4937683;28;20226;-88
2023/01/14 04:55:47;;;;;;;9.37;2.00;;;;;;;;;;4943138;28;20225;-91
2023/01/14 04:58:14;;;;;;;6.30;2.07;;;;;;;;;;4968766;28;20234;-90
2023/01/14 05:00:40;;;;;;;6.93;2.20;;;;;;;;;;4939444;28;20225;-87
2023/01/14 05:03:11;;;;;;;5.47;2.03;;;;;;;;;;4954828;28;20300;-87
2023/01/14 05:05:36;;;;;;;5.53;1.90;;;;;;;;;;4947661;28;20330;-89
2023/01/14 05:08:05;;;;;;;4.57;1.90;;;;;;;;;;4956068;28;20244;-85
2023/01/14 05:10:31;;;;;;;4.80;2.13;;;;;;;;;;4957063;28;20218;-84
2023/01/14 05:13:00;;;;;;;6.50;2.87;;;;;;;;;;4930683;28;20599;-85
2023/01/14 05:15:31;;;;;;;4.93;2.90;;;;;;;;;;4944408;28;20234;-84
2023/01/14 05:17:58;;;;;;;7.10;2.80;;;;;;;;;;4951230;28;20234;-83
2023/01/14 05:20:24;;;;;;;7.80;2.80;;;;;;;;;;4925413;28;20260;-83
2023/01/14 05:22:50;;;;;;;8.93;3.03;;;;;;;;;;4951948;28;20226;-85
2023/01/14 05:25:16;;;;;;;5.70;2.70;;;;;;;;;;4955082;28;20226;-82
2023/01/14 05:27:41;;;;;;;12.23;3.30;;;;;;;;;;4938732;28;20228;-83
2023/01/14 05:30:08;;;;;;;9.87;3.30;;;;;;;;;;4939870;28;20230;-83
2023/01/14 05:32:34;;;;;;;9.13;2.63;;;;;;;;;;4954603;28;20258;-83
2023/01/14 05:35:02;;;;;;;7.20;3.00;;;;;;;;;;4959697;28;20233;-83
2023/01/14 05:37:28;;;;;;;8.07;2.90;;;;;;;;;;4943422;28;20559;-83
2023/01/14 05:39:53;;;;;;;7.23;2.87;;;;;;;;;;4956287;28;20232;-85
2023/01/14 05:47:56;;;;;;;7.80;2.73;;;;;;;;;;4972697;28;20688;-84
2023/01/14 05:50:22;;;;;;;7.27;3.07;;;;;;;;;;4965357;28;20244;-85
2023/01/14 05:52:47;;;;;;;9.40;3.93;;;;;;;;;;4953688;28;20317;-85
2023/01/14 05:55:17;;;;;;;6.37;3.03;;;;;;;;;;4947192;28;20241;-84
2023/01/14 05:57:47;;;;;;;12.60;3.67;;;;;;;;;;4969684;28;20230;-85
2023/01/14 06:06:20;;;;;;;9.37;3.17;;;;;;;;;;4939392;28;20210;-83
2023/01/14 06:08:30;;;;;;;8.10;3.30;;;;;;;;;;4953719;28;20239;-85
2023/01/14 06:10:55;;;;;;;11.10;3.37;;;;;;;;;;4936368;28;20305;-85
2023/01/14 06:13:22;;;;;;;8.17;3.27;;;;;;;;;;4963216;28;20230;-85
2023/01/14 06:15:55;;;;;;;7.33;3.10;;;;;;;;;;4958855;28;20272;-85
2023/01/14 06:18:23;;;;;;;10.03;3.43;;;;;;;;;;4957726;28;20237;-85
2023/01/14 06:20:49;;;;;;;7.73;3.23;;;;;;;;;;4956565;28;20214;-81
2023/01/14 06:23:18;;;;;;;11.93;3.53;;;;;;;;;;4936934;28;20330;-84
2023/01/14 06:25:47;;;;;;;9.73;3.43;;;;;;;;;;4957897;28;20225;-83
2023/01/14 06:28:13;;;;;;;10.17;3.27;;;;;;;;;;4959182;28;20305;-84
2023/01/14 06:30:39;;;;;;;14.13;3.90;;;;;;;;;;4958638;28;20819;-84
2023/01/14 06:33:09;;;;;;;10.70;3.20;;;;;;;;;;4942279;28;20218;-84
2023/01/14 06:35:40;;;;;;;14.23;3.97;;;;;;;;;;4972675;28;20265;-84
2023/01/14 06:38:05;;;;;;;7.23;3.00;;;;;;;;;;4931166;28;20230;-86
2023/01/14 06:40:31;;;;;;;10.60;3.30;;;;;;;;;;4970807;28;20220;-86
2023/01/14 06:42:56;;;;;;;8.07;2.97;;;;;;;;;;4953966;28;20279;-86
2023/01/14 06:45:24;;;;;;;13.43;3.40;;;;;;;;;;4971042;28;20230;-84
2023/01/14 06:47:55;;;;;;;10.83;2.67;;;;;;;;;;4958829;28;20230;-87
2023/01/14 06:50:23;;;;;;;12.37;3.20;;;;;;;;;;4938523;28;20555;-85
2023/01/14 06:52:52;;;;;;;9.93;3.17;;;;;;;;;;4950020;28;20300;-85
2023/01/14 06:55:21;;;;;;;8.80;3.10;;;;;;;;;;4955004;28;20217;-85
2023/01/14 06:57:47;;;;;;;14.60;3.37;;;;;;;;;;4955481;28;20230;-85
2023/01/14 07:00:13;;;;;;;7.87;2.77;;;;;;;;;;4938388;28;20269;-85
2023/01/14 07:02:39;;;;;;;7.97;2.90;;;;;;;;;;4941095;28;20225;-84
2023/01/14 07:05:05;;;;;;;9.83;2.93;;;;;;;;;;4986433;28;20222;-85
2023/01/14 07:07:33;;;;;;;12.13;3.47;;;;;;;;;;4958233;28;20226;-85
2023/01/14 07:10:01;;;;;;;9.40;2.97;;;;;;;;;;4942339;28;20218;-85
2023/01/14 07:12:26;;;;;;;11.63;3.03;;;;;;;;;;4959663;28;20689;-85
2023/01/14 07:14:52;;;;;;;12.70;3.43;;;;;;;;;;4970590;28;20221;-85
2023/01/14 07:17:17;;;;;;;10.13;2.80;;;;;;;;;;4958789;28;20487;-85
2023/01/14 07:19:43;;;;;;;11.37;3.10;;;;;;;;;;4970241;28;20251;-85
2023/01/14 07:22:11;;;;;;;11.23;3.00;;;;;;;;;;4958617;28;20305;-86
2023/01/14 07:24:37;;;;;;;12.17;3.27;;;;;;;;;;4962820;28;20284;-85
2023/01/14 07:27:06;;;;;;;13.30;3.23;;;;;;;;;;4961104;28;20282;-84
2023/01/14 07:29:31;;;;;;;14.73;3.03;;;;;;;;;;4940987;28;20276;-85
2023/01/14 07:31:57;;;;;;;13.53;3.30;;;;;;;;;;4947491;28;20304;-85
2023/01/14 07:34:27;;;;;;;7.63;3.20;;;;;;;;;;4962717;28;20214;-84
2023/01/14 07:36:57;;;;;;;13.37;3.63;;;;;;;;;;4964463;28;20269;-84
2023/01/14 07:39:23;;;;;;;11.43;3.57;;;;;;;;;;4978101;28;20225;-86
2023/01/14 07:41:50;;;;;;;7.73;2.77;;;;;;;;;;4966396;28;20280;-86
2023/01/14 07:44:23;;;;;;;13.60;3.80;;;;;;;;;;4960594;28;20228;-86
2023/01/14 07:46:57;;;;;;;14.53;3.77;;;;;;;;;;4963973;28;20218;-84
2023/01/14 07:49:25;;;;;;;14.87;4.50;;;;;;;;;;4962415;28;20220;-83
2023/01/14 07:51:50;;;;;;;12.77;4.07;;;;;;;;;;4946628;28;20222;-84
2023/01/14 07:54:18;;;;;;;10.33;4.00;;;;;;;;;;4957157;28;20229;-86
2023/01/14 07:56:44;;;;;;;10.50;3.80;;;;;;;;;;4957740;28;20233;-84
2023/01/14 07:59:12;;;;;;;11.87;4.03;;;;;;;;;;4971380;28;20248;-83
2023/01/14 08:01:38;;;;;;;13.30;4.60;;;;;;;;;;4978435;28;20798;-84
2023/01/14 08:04:03;;;;;;;13.23;4.30;;;;;;;;;;4967460;28;20229;-85
2023/01/14 08:06:29;;;;;;;12.07;4.23;;;;;;;;;;4960211;28;20241;-85
2023/01/14 08:08:55;;;;;;;11.10;4.43;;;;;;;;;;4962074;28;20634;-85
2023/01/14 08:11:25;;;;;;;10.93;4.47;;;;;;;;;;4975994;28;20214;-83
2023/01/14 08:13:51;;;;;;;10.87;4.33;;;;;;;;;;4978603;28;20281;-85
2023/01/14 08:16:16;;;;;;;14.40;4.37;;;;;;;;;;4959187;28;20308;-84
2023/01/14 08:18:42;;;;;;;11.10;3.97;;;;;;;;;;4973741;28;20225;-84
2023/01/14 08:21:09;;;;;;;11.03;4.30;;;;;;;;;;4969339;28;20224;-84
2023/01/14 08:23:39;;;;;;;10.93;4.30;;;;;;;;;;4971012;28;20279;-84
2023/01/14 08:26:09;;;;;;;12.17;4.80;;;;;;;;;;4952702;28;20229;-83
2023/01/14 08:28:35;;;;;;;12.57;4.33;;;;;;;;;;4976321;28;20231;-83
2023/01/14 08:31:12;;;;;;;14.07;4.73;;;;;;;;;;4939996;28;20238;-82
2023/01/14 08:33:40;;;;;;;11.83;4.57;;;;;;;;;;4973232;28;20224;-83
2023/01/14 08:36:10;;;;;;;10.13;4.47;;;;;;;;;;4931910;28;20233;-83
2023/01/14 08:38:42;;;;;;;11.03;4.33;;;;;;;;;;4957759;28;20234;-84
2023/01/14 08:41:11;;;;;;;13.10;4.07;;;;;;;;;;4924182;28;20222;-82
2023/01/14 08:43:39;;;;;;;11.77;4.60;;;;;;;;;;4938856;29;20233;-82
2023/01/14 08:46:08;;;;;;;9.63;3.90;;;;;;;;;;4960568;28;20230;-84
2023/01/14 08:48:33;;;;;;;9.00;4.27;;;;;;;;;;4938006;28;20249;-83
2023/01/14 08:51:01;;;;;;;11.90;4.77;;;;;;;;;;4937867;28;20229;-84
2023/01/14 08:53:30;;;;;;;11.57;4.50;;;;;;;;;;4973539;28;20232;-83
2023/01/14 08:55:59;;;;;;;11.20;4.63;;;;;;;;;;4947155;28;20229;-84
2023/01/14 08:58:25;;;;;;;14.27;4.60;;;;;;;;;;4956048;28;20624;-85
2023/01/14 09:00:58;;;;;;;16.83;4.83;;;;;;;;;;4971514;28;20222;-84
2023/01/14 09:03:29;;;;;;;13.03;4.10;;;;;;;;;;4954614;28;20218;-83
2023/01/14 09:06:09;;;;;;;15.33;4.27;;;;;;;;;;4971047;28;20222;-84
2023/01/14 09:17:06;;;;;;;11.73;4.17;;;;;;;;;;4960048;28;20226;-84
2023/01/14 09:19:45;;;;;;;9.87;3.53;;;;;;;;;;4958860;28;20232;-83
2023/01/14 09:22:11;;;;;;;11.53;4.10;;;;;;;;;;4930503;28;20229;-84
2023/01/14 09:24:42;;;;;;;11.97;4.40;;;;;;;;;;4937104;28;20245;-84
2023/01/14 09:27:07;;;;;;;11.47;3.47;;;;;;;;;;4983807;28;20920;-82
2023/01/14 09:29:33;;;;;;;9.50;3.70;;;;;;;;;;4966736;28;20223;-83
2023/01/14 09:31:58;;;;;;;17.20;4.00;;;;;;;;;;4952408;28;20717;-83
2023/01/14 09:34:26;;;;;;;14.17;4.07;;;;;;;;;;4939997;28;20244;-82
2023/01/14 09:36:53;;;;;;;8.47;3.27;;;;;;;;;;4953456;28;20236;-84
2023/01/14 09:39:19;;;;;;;9.97;3.53;;;;;;;;;;4956347;28;20237;-82
2023/01/14 09:41:55;;;;;;;11.87;3.60;;;;;;;;;;4958010;28;20230;-83
2023/01/14 09:44:21;;;;;;;11.97;3.30;;;;;;;;;;4970295;28;20247;-84
2023/01/14 09:46:47;;;;;;;7.53;3.27;;;;;;;;;;4974775;28;20372;-82
2023/01/14 09:49:15;;;;;;;9.93;3.03;;;;;;;;;;4955159;28;20221;-83
2023/01/14 09:51:59;;;;;;;9.87;3.67;;;;;;;;;;4954750;28;20233;-84
2023/01/14 09:54:48;;;;;;;9.13;3.13;;;;;;;;;;4964009;28;20253;-84
2023/01/14 09:57:41;;;;;;;12.40;3.30;;;;;;;;;;4979052;28;20226;-84
2023/01/14 10:00:16;;;;;;;10.37;2.70;;;;;;;;;;4975559;28;20222;-83
2023/01/14 10:03:16;;;;;;;7.67;2.77;;;;;;;;;;4995383;28;20233;-80
2023/01/14 10:05:45;;;;;;;9.83;3.47;;;;;;;;;;4999976;28;20240;-83
2023/01/14 10:08:13;;;;;;;10.00;3.20;;;;;;;;;;4952840;28;20241;-83
2023/01/14 10:10:40;;;;;;;11.07;2.77;;;;;;;;;;4936888;28;20258;-84
2023/01/14 10:16:28;;;;;;;9.70;3.07;;;;;;;;;;4946074;28;20226;-82
2023/01/14 10:19:39;;;;;;;7.97;2.47;;;;;;;;;;4942855;28;20221;-86
2023/01/14 10:22:51;;;;;;;10.57;2.90;;;;;;;;;;4968493;28;20249;-81
2023/01/14 10:25:22;;;;;;;9.80;2.70;;;;;;;;;;4938207;28;20314;-85
2023/01/14 10:27:57;;;;;;;9.50;2.83;;;;;;;;;;4935926;28;20285;-81
2023/01/14 10:30:38;;;;;;;7.63;2.60;;;;;;;;;;4983601;28;20233;-82
2023/01/14 10:33:15;;;;;;;9.40;2.40;;;;;;;;;;4926416;28;20226;-82
2023/01/14 10:36:03;;;;;;;8.43;2.43;;;;;;;;;;4945420;28;20233;-81
2023/01/14 10:38:32;;;;;;;6.53;2.40;;;;;;;;;;4955640;28;20249;-84
2023/01/14 10:41:07;;;;;;;8.93;2.27;;;;;;;;;;4947522;28;20694;-85
2023/01/14 10:44:14;;;;;;;10.13;2.53;;;;;;;;;;4961599;28;20228;-84
2023/01/14 10:46:47;;;;;;;5.90;1.90;;;;;;;;;;4947307;28;20326;-82
2023/01/14 10:49:43;;;;;;;6.97;2.33;;;;;;;;;;4951091;28;20248;-83
2023/01/14 10:52:32;;;;;;;6.00;2.23;;;;;;;;;;4958828;28;20217;-81
2023/01/14 10:55:04;;;;;;;6.70;2.27;;;;;;;;;;4953597;28;20221;-82
2023/01/14 10:57:43;;;;;;;7.43;2.63;;;;;;;;;;4938218;28;20238;-80
2023/01/14 11:00:35;;;;;;;7.20;2.10;;;;;;;;;;4926474;28;20683;-81
2023/01/14 11:03:33;;;;;;;6.50;2.07;;;;;;;;;;4941428;29;20226;-83
2023/01/14 11:06:06;;;;;;;6.63;1.93;;;;;;;;;;4972592;28;20289;-84
2023/01/14 11:08:48;;;;;;;7.43;2.43;;;;;;;;;;4949302;28;20222;-83
2023/01/14 11:11:22;;;;;;;6.57;2.10;;;;;;;;;;4938857;28;20240;-82
2023/01/14 11:13:50;;;;;;;4.47;1.77;;;;;;;;;;4953891;28;20259;-82
2023/01/14 11:16:27;;;;;;;8.70;2.73;;;;;;;;;;4945649;28;20268;-85
2023/01/14 11:19:06;;;;;;;9.80;2.67;;;;;;;;;;4980297;28;20225;-82
2023/01/14 11:21:49;;;;;;;7.13;2.07;;;;;;;;;;4958664;28;20228;-83
2023/01/14 11:24:56;;;;;;;6.47;2.23;;;;;;;;;;4954259;28;20222;-83
2023/01/14 11:27:25;;;;;;;8.37;2.27;;;;;;;;;;4933878;28;20286;-82
2023/01/14 11:30:11;;;;;;;8.03;2.17;;;;;;;;;;4948284;28;20224;-82
2023/01/14 11:32:49;;;;;;;4.80;2.00;;;;;;;;;;4944502;28;20221;-82
2023/01/14 11:35:41;;;;;;;5.57;1.73;;;;;;;;;;4945796;28;20259;-83
2023/01/14 11:38:44;;;;;;;7.47;2.20;;;;;;;;;;4928515;28;20322;-83
2023/01/14 11:41:38;;;;;;;7.63;2.67;;;;;;;;;;4915800;28;20220;-83
2023/01/14 11:45:08;;;;;;;;;;;;;;;;;;;;;
2023/01/14 11:47:35;;;;;;;7.97;2.20;;;;;;;;;;4971215;28;20699;-83
2023/01/14 11:50:22;;;;;;;8.37;2.40;;;;;;;;;;4925869;28;20285;-83
2023/01/14 11:53:18;;;;;;;;;;;;;;;;;;;;;
2023/01/14 11:56:20;;;;;;;6.83;2.17;;;;;;;;;;4969652;28;20567;-83
2023/01/14 11:59:03;;;;;;;7.07;2.10;;;;;;;;;;4931417;28;20436;-83
2023/01/14 12:02:06;;;;;;;;;;;;;;;;;;;;;
2023/01/14 12:04:57;;;;;;;6.00;1.77;;;;;;;;;;4962459;28;20222;-85
2023/01/14 12:07:34;;;;;;;5.53;1.50;;;;;;;;;;4995328;28;20300;-83
2023/01/14 12:10:27;;;;;;;7.53;2.20;;;;;;;;;;4984904;28;20249;-84
2023/01/14 12:19:12;;;;;;;8.20;2.13;;;;;;;;;;4971657;28;20240;-81
2023/01/14 12:22:34;;;;;;;;;;;;;;;;;;;;;
2023/01/14 12:25:15;;;;;;;6.63;2.47;;;;;;;;;;4975117;28;20229;-82
2023/01/14 12:28:25;;;;;;;6.27;2.03;;;;;;;;;;4974039;28;20221;-82
2023/01/14 12:31:11;;;;;;;10.83;2.57;;;;;;;;;;4959342;28;20222;-84
2023/01/14 12:33:46;;;;;;;4.13;1.83;;;;;;;;;;4962324;28;20222;-83
2023/01/14 12:36:19;;;;;;;7.37;2.47;;;;;;;;;;4953139;28;20230;-85
2023/01/14 12:45:47;;;;;;;7.27;1.97;;;;;;;;;;4975701;28;20237;-82
2023/01/14 12:48:16;;;;;;;7.37;2.20;;;;;;;;;;4940256;28;20692;-84
2023/01/14 12:50:52;;;;;;;6.87;1.90;;;;;;;;;;4960913;28;20221;-82
2023/01/14 12:53:29;;;;;;;4.57;1.90;;;;;;;;;;4962729;28;20225;-81
2023/01/14 12:56:07;;;;;;;6.53;2.10;;;;;;;;;;4959690;28;20225;-84
2023/01/14 12:58:41;;;;;;;7.90;1.83;;;;;;;;;;4922074;28;20240;-81
2023/01/14 13:01:18;;;;;;;5.17;1.60;;;;;;;;;;4944183;28;20236;-84
2023/01/14 13:03:57;;;;;;;6.47;1.87;;;;;;;;;;4930429;28;20325;-84
2023/01/14 13:06:33;;;;;;;5.93;2.33;;;;;;;;;;4951919;28;20257;-84
2023/01/14 13:09:04;;;;;;;4.40;1.80;;;;;;;;;;4945142;28;20230;-84
2023/01/14 13:11:47;;;;;;;5.60;2.20;;;;;;;;;;4944995;28;20221;-83
2023/01/14 13:14:37;;;;;;;;;;;;;;;;;;;;;
2023/01/14 13:17:41;;;;;;;5.50;2.00;;;;;;;;;;4956997;28;20234;-83
2023/01/14 13:20:36;;;;;;;4.97;1.80;;;;;;;;;;4942447;28;20230;-83
2023/01/14 13:23:03;;;;;;;3.53;1.73;;;;;;;;;;4974075;28;20244;-81
2023/01/14 13:25:38;;;;;;;6.63;1.80;;;;;;;;;;4942120;28;20236;-84
2023/01/14 13:28:12;;;;;;;7.73;2.20;;;;;;;;;;4945413;28;20233;-83
2023/01/14 13:31:07;;;;;;;6.70;2.37;;;;;;;;;;4965105;28;20261;-84
2023/01/14 13:33:45;;;;;;;6.37;2.00;;;;;;;;;;4949823;28;20277;-82
2023/01/14 13:36:23;;;;;;;6.50;2.30;;;;;;;;;;4940401;28;20237;-83
2023/01/14 13:39:14;;;;;;;;;;;;;;;;;;;;;
2023/01/14 13:41:51;;;;;;;10.87;2.60;;;;;;;;;;4930685;28;20246;-83
2023/01/14 13:44:23;;;;;;;7.73;2.10;;;;;;;;;;4949725;28;20261;-82
2023/01/14 13:47:23;;;;;;;6.07;2.50;;;;;;;;;;4961253;28;20229;-83
2023/01/14 13:50:00;;;;;;;5.37;2.13;;;;;;;;;;4959631;28;20228;-81
2023/01/14 13:52:31;;;;;;;6.07;2.40;;;;;;;;;;4953154;28;20225;-84
2023/01/14 13:55:06;;;;;;;7.97;2.30;;;;;;;;;;4932944;28;20230;-82
2023/01/14 13:57:40;;;;;;;6.27;2.50;;;;;;;;;;4890886;28;20257;-84
2023/01/14 14:00:17;;;;;;;4.27;1.90;;;;;;;;;;4932237;28;20265;-85
2023/01/14 14:02:45;;;;;;;3.23;2.17;;;;;;;;;;4949348;28;20221;-83
2023/01/14 14:05:33;;;;;;;6.63;2.43;;;;;;;;;;4949469;28;20293;-85
2023/01/14 14:08:22;;;;;;;4.00;2.13;;;;;;;;;;4939514;28;20249;-83
2023/01/14 14:11:00;;;;;;;7.07;2.53;;;;;;;;;;4970860;28;20229;-84
2023/01/14 14:16:49;;;;;;;3.57;2.00;;;;;;;;;;4941849;28;20232;-86
2023/01/14 14:19:25;;;;;;;5.60;2.50;;;;;;;;;;4976581;28;20254;-87
2023/01/14 14:22:08;;;;;;;4.60;2.13;;;;;;;;;;4963920;28;20225;-84
2023/01/14 14:24:51;;;;;;;6.90;2.33;;;;;;;;;;4970738;28;20229;-84
2023/01/14 14:27:55;;;;;;;4.87;2.03;;;;;;;;;;4965802;28;20235;-84
2023/01/14 14:30:35;;;;;;;7.70;2.50;;;;;;;;;;4955231;28;20324;-85
2023/01/14 14:33:11;;;;;;;6.40;2.27;;;;;;;;;;4943209;28;20238;-86
2023/01/14 14:35:42;;;;;;;5.20;2.20;;;;;;;;;;4955350;28;20229;-84
2023/01/14 14:38:31;;;;;;;6.00;2.33;;;;;;;;;;4910979;28;20238;-85
2023/01/14 14:43:54;;;;;;;3.13;1.57;;;;;;;;;;4969118;28;20218;-87
2023/01/14 14:46:28;;;;;;;4.33;2.13;;;;;;;;;;4963652;28;20260;-85
2023/01/14 14:48:56;;;;;;;3.47;1.60;;;;;;;;;;4931629;28;20226;-83
2023/01/14 14:51:29;;;;;;;2.90;1.67;;;;;;;;;;4967296;28;20297;-81
2023/01/14 14:53:59;;;;;;;7.00;2.27;;;;;;;;;;4938988;28;20228;-85
2023/01/14 14:56:38;;;;;;;4.07;1.90;;;;;;;;;;4906346;28;20235;-84
2023/01/14 14:59:08;;;;;;;3.63;2.00;;;;;;;;;;4926988;28;20301;-86
2023/01/14 15:01:56;;;;;;;4.33;1.73;;;;;;;;;;4914995;28;20309;-83
2023/01/14 15:04:33;;;;;;;2.50;1.43;;;;;;;;;;4936359;28;20218;-84
2023/01/14 15:07:06;;;;;;;3.00;1.50;;;;;;;;;;4948410;28;20253;-83
2023/01/14 15:09:34;;;;;;;3.67;1.87;;;;;;;;;;4948523;28;20238;-84
2023/01/14 15:12:00;;;;;;;3.80;1.70;;;;;;;;;;4928542;28;20214;-85
2023/01/14 15:14:35;;;;;;;3.03;1.70;;;;;;;;;;4954001;28;20226;-84
2023/01/14 15:17:11;;;;;;;3.40;1.50;;;;;;;;;;4980407;28;20233;-83
2023/01/14 15:19:48;;;;;;;2.73;1.50;;;;;;;;;;4962079;28;20214;-82
2023/01/14 15:22:27;;;;;;;4.63;1.60;;;;;;;;;;4934859;28;20315;-83
2023/01/14 15:25:03;;;;;;;2.83;1.20;;;;;;;;;;4915841;28;20253;-83
2023/01/14 15:27:35;;;;;;;3.13;1.50;;;;;;;;;;4929238;28;20236;-84
2023/01/14 15:30:27;;;;;;;2.03;1.53;;;;;;;;;;4943614;28;20282;-85
2023/01/14 15:32:55;;;;;;;2.13;1.73;;;;;;;;;;4915503;28;20296;-83
2023/01/14 15:35:35;;;;;;;2.47;1.40;;;;;;;;;;4943617;28;20853;-82
2023/01/14 15:38:17;;;;;;;1.87;1.70;;;;;;;;;;4937192;28;20277;-81
2023/01/14 15:40:49;;;;;;;1.80;1.57;;;;;;;;;;4952876;28;20229;-82
2023/01/14 15:43:32;;;;;;;1.60;1.30;;;;;;;;;;4952836;28;20285;-85
2023/01/14 15:46:07;;;;;;;1.83;1.40;;;;;;;;;;4941988;28;20329;-82
2023/01/14 15:48:39;;;;;;;5.10;1.77;;;;;;;;;;4938502;28;20598;-84
2023/01/14 15:51:07;;;;;;;1.60;1.50;;;;;;;;;;4935681;28;20332;-82
2023/01/14 15:53:33;;;;;;;1.80;1.40;;;;;;;;;;4932680;28;20692;-83
2023/01/14 15:56:16;;;;;;;;;;;;;;;;;;;;;
2023/01/14 15:58:58;;;;;;;2.60;1.50;;;;;;;;;;4977864;28;20236;-83
2023/01/14 16:01:42;;;;;;;1.83;1.50;;;;;;;;;;4958197;28;20223;-83
2023/01/14 16:04:29;;;;;;;1.93;1.13;;;;;;;;;;4957160;28;20225;-84
2023/01/14 16:07:06;;;;;;;2.37;1.30;;;;;;;;;;4930012;28;20261;-85
2023/01/14 16:09:48;;;;;;;4.73;1.93;;;;;;;;;;4937689;28;20291;-87
2023/01/14 16:12:16;;;;;;;1.87;1.20;;;;;;;;;;4942189;28;20225;-80
2023/01/14 16:14:46;;;;;;;2.07;1.13;;;;;;;;;;4943898;28;20250;-84